Time;durP1;ratioP1;P1;durP2;ratioP2;P2;SDS_P1;SDS_P2;PMS_P1;PMS_P2;Temp;Humidity;BMP_temperature;BMP_pressure;BME280_temperature;BME280_humidity;BME280_pressure;Samples;Min_cycle;Max_cycle;Signal;HPM_P1;HPM_P2
2021/05/30 00:01:56;;;;;;;11.20;6.75;;;5.20;99.90;;;;;;5120129;28;20096;-64
2021/05/30 00:04:24;;;;;;;13.15;6.38;;;5.20;99.90;;;;;;5121005;28;20406;-64
2021/05/30 00:06:52;;;;;;;13.40;6.88;;;5.20;99.90;;;;;;5120322;28;20103;-64
2021/05/30 00:09:21;;;;;;;16.98;7.43;;;5.10;99.90;;;;;;5120510;28;20020;-64
2021/05/30 00:11:49;;;;;;;12.38;6.85;;;5.10;99.90;;;;;;5120284;28;20019;-64
2021/05/30 00:14:18;;;;;;;12.15;6.45;;;5.00;99.90;;;;;;5120268;28;20308;-64
2021/05/30 00:16:46;;;;;;;15.45;6.65;;;4.90;99.90;;;;;;5120265;28;20106;-64
2021/05/30 00:19:15;;;;;;;11.40;6.18;;;4.90;99.90;;;;;;5120042;28;20035;-64
2021/05/30 00:21:42;;;;;;;11.77;6.68;;;4.80;99.90;;;;;;5120086;28;20039;-63
2021/05/30 00:24:10;;;;;;;19.08;6.55;;;4.80;99.90;;;;;;5103576;28;20020;-63
2021/05/30 00:26:38;;;;;;;13.15;7.05;;;4.80;99.90;;;;;;5121432;28;20026;-63
2021/05/30 00:29:06;;;;;;;12.18;6.78;;;4.80;99.90;;;;;;5121308;28;20058;-63
2021/05/30 00:31:34;;;;;;;13.23;6.88;;;4.80;99.90;;;;;;5102738;28;20331;-63
2021/05/30 00:34:02;;;;;;;12.65;7.13;;;4.80;99.90;;;;;;5120023;28;20016;-63
2021/05/30 00:36:30;;;;;;;11.48;6.35;;;4.80;99.90;;;;;;5102548;28;20031;-64
2021/05/30 00:38:58;;;;;;;11.35;6.18;;;4.80;99.90;;;;;;5121232;28;20094;-63
2021/05/30 00:41:27;;;;;;;22.70;7.40;;;4.70;99.90;;;;;;5120092;28;20019;-63
2021/05/30 00:43:56;;;;;;;12.10;6.45;;;4.70;99.90;;;;;;5119672;28;20121;-64
2021/05/30 00:46:25;;;;;;;12.10;6.03;;;4.70;99.90;;;;;;5119501;28;20058;-64
2021/05/30 00:48:53;;;;;;;15.13;7.18;;;4.70;99.90;;;;;;5119505;28;20034;-64
2021/05/30 00:51:21;;;;;;;14.23;7.28;;;4.70;99.90;;;;;;5119335;28;20030;-64
2021/05/30 00:53:48;;;;;;;11.50;6.43;;;4.70;99.90;;;;;;5119564;28;20426;-64
2021/05/30 00:56:17;;;;;;;12.68;6.75;;;4.60;99.90;;;;;;5119375;28;20023;-63
2021/05/30 00:58:44;;;;;;;13.18;7.25;;;4.60;99.90;;;;;;5119361;28;20020;-64
2021/05/30 01:01:12;;;;;;;13.45;6.65;;;4.60;99.90;;;;;;5118948;28;20100;-63
2021/05/30 01:03:40;;;;;;;13.50;6.60;;;4.60;99.90;;;;;;5119661;28;20084;-63
2021/05/30 01:06:10;;;;;;;14.75;7.22;;;4.50;99.90;;;;;;5120087;28;20030;-63
2021/05/30 01:08:37;;;;;;;12.43;6.75;;;4.50;99.90;;;;;;5120916;28;20357;-63
2021/05/30 01:11:13;;;;;;;13.27;6.38;;;4.50;99.90;;;;;;5120324;28;20031;-63
2021/05/30 01:13:41;;;;;;;10.73;6.35;;;4.50;99.90;;;;;;5120536;28;20024;-63
2021/05/30 01:16:13;;;;;;;10.82;5.47;;;4.50;99.90;;;;;;5119899;28;20030;-64
2021/05/30 01:18:42;;;;;;;12.88;6.03;;;4.50;99.90;;;;;;5120284;28;20090;-63
2021/05/30 01:21:09;;;;;;;10.73;4.93;;;4.40;99.90;;;;;;5101681;28;20046;-63
2021/05/30 01:23:37;;;;;;;10.80;5.72;;;4.40;99.90;;;;;;5119287;28;20317;-64
2021/05/30 01:26:05;;;;;;;11.38;5.90;;;4.30;99.90;;;;;;5118927;28;20024;-63
2021/05/30 01:28:34;;;;;;;11.05;6.20;;;4.30;99.90;;;;;;5118866;28;20020;-63
2021/05/30 01:31:02;;;;;;;11.60;6.65;;;4.20;99.90;;;;;;5118772;28;20099;-64
2021/05/30 01:33:30;;;;;;;11.98;6.20;;;4.20;99.90;;;;;;5119214;28;20020;-63
2021/05/30 01:35:58;;;;;;;12.85;6.63;;;4.10;99.90;;;;;;5118577;28;20031;-63
2021/05/30 01:38:26;;;;;;;11.90;6.32;;;4.10;99.90;;;;;;5119341;28;20021;-63
2021/05/30 01:40:54;;;;;;;16.90;7.07;;;4.10;99.90;;;;;;5118425;28;20054;-63
2021/05/30 01:43:21;;;;;;;12.48;6.28;;;4.10;99.90;;;;;;5118520;28;20098;-63
2021/05/30 01:45:49;;;;;;;16.02;7.03;;;4.10;99.90;;;;;;5101524;28;20030;-63
2021/05/30 01:48:17;;;;;;;15.02;7.20;;;4.10;99.90;;;;;;5101356;28;20043;-63
2021/05/30 01:50:47;;;;;;;13.90;6.60;;;4.10;99.90;;;;;;5119258;28;20024;-64
2021/05/30 01:53:17;;;;;;;13.77;6.13;;;4.10;99.90;;;;;;5118953;28;20023;-63
2021/05/30 01:56:55;;;;;;;12.95;5.65;;;4.10;99.90;;;;;;5119158;28;20023;-63
2021/05/30 01:58:43;;;;;;;10.15;5.85;;;4.10;99.90;;;;;;5119031;28;20438;-63
2021/05/30 02:01:13;;;;;;;10.60;5.82;;;4.10;99.90;;;;;;5118756;28;20036;-64
2021/05/30 02:03:44;;;;;;;8.77;4.95;;;4.10;99.90;;;;;;5119051;28;20030;-63
2021/05/30 02:06:16;;;;;;;11.73;6.15;;;4.00;99.90;;;;;;5099858;28;20024;-63
2021/05/30 02:08:47;;;;;;;19.55;5.78;;;4.00;99.90;;;;;;5118734;28;20030;-64
2021/05/30 02:11:16;;;;;;;11.93;6.40;;;3.90;99.90;;;;;;5118104;28;20027;-63
2021/05/30 02:13:44;;;;;;;11.15;5.13;;;3.90;99.90;;;;;;5118098;28;20062;-64
2021/05/30 02:16:11;;;;;;;15.73;6.05;;;3.90;99.90;;;;;;5117745;28;20104;-64
2021/05/30 02:18:39;;;;;;;12.57;5.95;;;3.90;99.90;;;;;;5099916;28;20015;-64
2021/05/30 02:21:06;;;;;;;17.50;6.40;;;3.90;99.90;;;;;;5082861;28;20048;-64
2021/05/30 02:23:34;;;;;;;11.90;5.93;;;3.80;99.90;;;;;;5117641;28;20442;-64
2021/05/30 02:26:05;;;;;;;13.60;6.13;;;3.80;99.90;;;;;;5118315;28;20372;-64
2021/05/30 02:28:33;;;;;;;13.00;5.90;;;3.80;99.90;;;;;;5118554;28;20035;-64
2021/05/30 02:31:02;;;;;;;14.07;6.28;;;3.80;99.90;;;;;;5118461;28;20032;-63
2021/05/30 02:33:31;;;;;;;20.25;7.78;;;3.80;99.90;;;;;;5118465;28;20110;-64
2021/05/30 02:35:59;;;;;;;10.77;5.78;;;3.80;99.90;;;;;;5100629;28;20015;-64
2021/05/30 02:38:27;;;;;;;10.45;5.47;;;3.80;99.90;;;;;;5118944;28;20019;-63
2021/05/30 02:40:54;;;;;;;10.52;5.90;;;3.70;99.90;;;;;;5118295;28;20011;-64
2021/05/30 02:43:22;;;;;;;13.38;6.25;;;3.80;99.90;;;;;;5118538;28;20332;-63
2021/05/30 02:45:50;;;;;;;8.85;4.47;;;3.70;99.90;;;;;;5117927;28;20049;-64
2021/05/30 02:48:18;;;;;;;21.55;7.97;;;3.70;99.90;;;;;;5099215;28;20110;-63
2021/05/30 02:50:57;;;;;;;10.73;5.78;;;3.70;99.90;;;;;;5117778;28;20026;-63
2021/05/30 02:53:31;;;;;;;9.63;5.93;;;3.60;99.90;;;;;;5117149;28;20034;-63
2021/05/30 02:55:59;;;;;;;12.35;6.05;;;3.60;99.90;;;;;;5117528;28;20150;-63
2021/05/30 02:58:29;;;;;;;11.85;6.10;;;3.60;99.90;;;;;;5098572;28;20073;-63
2021/05/30 03:00:58;;;;;;;15.75;6.28;;;3.60;99.90;;;;;;5116889;28;20096;-63
2021/05/30 03:03:26;;;;;;;11.48;5.55;;;3.60;99.90;;;;;;5117173;28;20023;-63
2021/05/30 03:05:54;;;;;;;19.70;6.50;;;3.50;99.90;;;;;;5098940;28;20027;-63
2021/05/30 03:08:22;;;;;;;13.52;5.55;;;3.60;99.90;;;;;;5099237;28;20058;-64
2021/05/30 03:10:49;;;;;;;13.38;6.28;;;3.50;99.90;;;;;;5118510;28;20031;-63
2021/05/30 03:13:17;;;;;;;10.98;5.65;;;3.50;99.90;;;;;;5118060;28;20020;-63
2021/05/30 03:15:45;;;;;;;14.68;5.75;;;3.60;99.90;;;;;;5117850;28;20034;-63
2021/05/30 03:18:14;;;;;;;10.70;6.15;;;3.50;99.90;;;;;;5117938;28;20012;-64
2021/05/30 03:20:41;;;;;;;13.63;5.53;;;3.50;99.90;;;;;;5117634;28;20327;-63
2021/05/30 03:23:10;;;;;;;7.95;4.72;;;3.50;99.90;;;;;;5101081;28;20448;-63
2021/05/30 03:25:38;;;;;;;10.18;5.18;;;3.40;99.90;;;;;;5100170;28;20046;-64
2021/05/30 03:28:05;;;;;;;11.15;5.60;;;3.40;99.90;;;;;;5117324;28;20080;-63
2021/05/30 03:30:33;;;;;;;8.68;4.65;;;3.40;99.90;;;;;;5116838;28;20023;-63
2021/05/30 03:33:00;;;;;;;12.60;6.15;;;3.50;99.90;;;;;;5117054;28;20110;-63
2021/05/30 03:35:29;;;;;;;11.57;5.43;;;3.40;99.90;;;;;;5116689;28;20087;-64
2021/05/30 03:37:57;;;;;;;15.50;5.75;;;3.50;99.90;;;;;;5116709;28;20064;-64
2021/05/30 03:42:57;;;;;;;11.60;6.03;;;3.60;99.90;;;;;;5116771;28;20051;-64
2021/05/30 03:45:25;;;;;;;11.40;5.75;;;3.60;99.90;;;;;;5117287;28;20024;-64
2021/05/30 03:47:53;;;;;;;11.15;5.28;;;3.70;99.90;;;;;;5116917;28;20091;-64
2021/05/30 03:50:21;;;;;;;10.77;5.68;;;3.70;99.90;;;;;;5099456;28;20059;-63
2021/05/30 03:52:49;;;;;;;14.35;5.55;;;3.70;99.90;;;;;;5117549;28;20020;-64
2021/05/30 03:55:19;;;;;;;10.82;6.05;;;3.70;99.90;;;;;;5117554;28;20015;-63
2021/05/30 03:57:49;;;;;;;13.25;6.25;;;3.70;99.90;;;;;;5117588;28;20107;-64
2021/05/30 04:00:19;;;;;;;13.98;5.93;;;3.70;99.90;;;;;;5095958;28;20036;-63
2021/05/30 04:02:48;;;;;;;13.25;6.10;;;3.80;99.90;;;;;;5097770;28;20028;-63
2021/05/30 04:05:17;;;;;;;15.27;5.85;;;3.80;99.90;;;;;;5097684;28;20123;-63
2021/05/30 04:07:45;;;;;;;13.55;6.32;;;3.80;99.90;;;;;;5113043;28;20028;-63
2021/05/30 04:10:14;;;;;;;13.50;5.57;;;3.90;99.90;;;;;;5099552;28;20028;-64
2021/05/30 04:12:43;;;;;;;12.73;5.07;;;4.00;99.90;;;;;;5098882;28;20111;-64
2021/05/30 04:15:13;;;;;;;13.75;6.15;;;4.00;99.90;;;;;;5100652;28;20073;-63
2021/05/30 04:17:42;;;;;;;9.43;5.22;;;4.10;99.90;;;;;;5098785;28;20024;-64
2021/05/30 04:20:12;;;;;;;14.40;6.82;;;4.20;99.90;;;;;;5099658;28;20016;-64
2021/05/30 04:22:40;;;;;;;14.77;6.20;;;4.20;99.90;;;;;;5099570;28;20415;-64
2021/05/30 04:25:10;;;;;;;11.32;6.07;;;4.30;99.90;;;;;;5100258;28;20106;-64
2021/05/30 04:27:37;;;;;;;10.88;6.07;;;4.30;99.90;;;;;;5098581;28;20111;-63
2021/05/30 04:30:07;;;;;;;16.20;7.03;;;4.40;99.90;;;;;;5099738;28;20020;-64
2021/05/30 04:32:36;;;;;;;12.93;7.20;;;4.50;99.90;;;;;;5100555;28;20024;-63
2021/05/30 04:35:05;;;;;;;13.27;6.43;;;4.50;99.90;;;;;;5100986;28;20069;-63
2021/05/30 04:37:33;;;;;;;12.88;6.45;;;4.50;99.90;;;;;;5100285;28;20050;-64
2021/05/30 04:40:02;;;;;;;12.27;6.35;;;4.60;99.90;;;;;;5099294;28;20024;-64
2021/05/30 04:42:31;;;;;;;13.00;6.63;;;4.60;99.90;;;;;;5100561;28;20020;-64
2021/05/30 04:44:59;;;;;;;13.23;6.18;;;4.70;99.90;;;;;;5100168;28;20024;-64
2021/05/30 04:47:27;;;;;;;12.38;6.85;;;4.80;99.90;;;;;;5100400;28;20031;-64
2021/05/30 04:49:55;;;;;;;13.20;6.32;;;4.80;99.90;;;;;;5100131;28;20119;-64
2021/05/30 04:52:22;;;;;;;12.10;6.30;;;4.90;99.90;;;;;;5098919;28;20028;-64
2021/05/30 04:54:49;;;;;;;11.57;6.38;;;5.00;99.90;;;;;;5099207;28;20074;-64
2021/05/30 04:57:17;;;;;;;12.18;6.38;;;5.10;99.90;;;;;;5099247;28;20020;-64
2021/05/30 04:59:45;;;;;;;13.60;7.03;;;5.20;99.90;;;;;;5099159;28;20016;-64
2021/05/30 05:02:13;;;;;;;12.45;6.15;;;5.40;99.90;;;;;;5119280;28;20027;-64
2021/05/30 05:04:40;;;;;;;12.10;6.22;;;5.50;99.90;;;;;;5119130;28;20019;-64
2021/05/30 05:07:08;;;;;;;9.50;6.00;;;5.60;99.90;;;;;;5119846;28;20073;-64
2021/05/30 05:09:35;;;;;;;10.88;6.32;;;5.70;99.90;;;;;;5119701;28;20027;-64
2021/05/30 05:12:03;;;;;;;11.55;6.65;;;5.80;99.90;;;;;;5120379;28;20027;-64
2021/05/30 05:14:31;;;;;;;13.35;7.13;;;5.90;99.90;;;;;;5120045;28;20026;-64
2021/05/30 05:16:59;;;;;;;14.20;6.50;;;6.00;99.90;;;;;;5120085;28;20351;-64
2021/05/30 05:19:27;;;;;;;15.85;7.00;;;6.10;99.90;;;;;;5119920;28;20165;-64
2021/05/30 05:21:55;;;;;;;13.07;6.55;;;6.20;99.90;;;;;;5119366;28;20019;-64
2021/05/30 05:24:23;;;;;;;15.25;8.30;;;6.40;99.90;;;;;;5120277;28;20043;-64
2021/05/30 05:26:51;;;;;;;15.80;8.75;;;6.40;99.90;;;;;;5101849;28;20429;-64
2021/05/30 05:29:18;;;;;;;16.00;8.80;;;6.60;99.90;;;;;;5120174;28;20308;-64
2021/05/30 05:31:48;;;;;;;16.95;8.13;;;6.70;99.90;;;;;;5118520;28;20031;-66
2021/05/30 05:34:16;;;;;;;14.02;7.65;;;6.80;99.90;;;;;;5119231;28;20043;-66
2021/05/30 05:36:43;;;;;;;19.52;7.68;;;6.90;99.90;;;;;;5118607;28;20453;-66
2021/05/30 05:39:11;;;;;;;15.35;8.32;;;7.00;99.90;;;;;;5118753;28;20403;-66
2021/05/30 05:41:39;;;;;;;17.35;8.48;;;7.20;99.90;;;;;;5118561;28;20016;-65
2021/05/30 05:44:06;;;;;;;19.83;9.32;;;7.20;99.90;;;;;;5118527;28;20023;-66
2021/05/30 05:46:33;;;;;;;15.75;9.02;;;7.30;99.90;;;;;;5118493;28;20016;-66
2021/05/30 05:49:01;;;;;;;14.55;8.63;;;7.40;99.90;;;;;;5118615;28;20442;-66
2021/05/30 05:51:28;;;;;;;16.38;8.07;;;7.60;99.90;;;;;;5118379;28;20027;-66
2021/05/30 05:53:56;;;;;;;22.02;9.45;;;7.70;99.90;;;;;;5119205;28;20020;-66
2021/05/30 05:56:23;;;;;;;16.52;8.23;;;7.70;99.90;;;;;;5119614;28;20106;-66
2021/05/30 05:58:51;;;;;;;15.25;9.02;;;7.80;99.90;;;;;;5119353;28;20051;-66
2021/05/30 06:01:19;;;;;;;15.15;8.48;;;7.90;99.90;;;;;;5118720;28;20040;-66
2021/05/30 06:03:47;;;;;;;16.08;8.40;;;8.00;99.90;;;;;;5101120;28;20023;-66
2021/05/30 06:06:14;;;;;;;18.80;8.85;;;8.10;99.90;;;;;;5119116;28;20024;-67
2021/05/30 06:08:42;;;;;;;19.33;9.05;;;8.20;99.90;;;;;;5118971;28;20156;-69
2021/05/30 06:11:10;;;;;;;16.83;9.07;;;8.30;99.90;;;;;;5118957;28;20020;-68
2021/05/30 06:13:37;;;;;;;18.02;8.55;;;8.40;99.90;;;;;;5117927;28;20423;-68
2021/05/30 06:16:06;;;;;;;19.13;8.45;;;8.50;99.90;;;;;;5117864;28;20047;-67
2021/05/30 06:18:35;;;;;;;17.67;9.18;;;8.60;99.90;;;;;;5117704;28;20107;-67
2021/05/30 06:21:03;;;;;;;17.00;9.50;;;8.70;99.90;;;;;;5117710;28;20035;-67
2021/05/30 06:23:31;;;;;;;16.52;9.18;;;8.80;99.90;;;;;;5118503;28;20116;-67
2021/05/30 06:25:58;;;;;;;22.65;9.60;;;8.90;99.90;;;;;;5117730;28;20016;-68
2021/05/30 06:28:26;;;;;;;19.08;8.23;;;9.00;99.90;;;;;;5099594;28;20031;-68
2021/05/30 06:30:54;;;;;;;14.55;8.63;;;9.10;99.90;;;;;;5117515;28;20028;-68
2021/05/30 06:33:22;;;;;;;17.27;8.57;;;9.10;99.90;;;;;;5117433;28;20103;-68
2021/05/30 06:35:51;;;;;;;17.65;9.13;;;9.30;99.90;;;;;;5118290;28;20047;-69
2021/05/30 06:38:19;;;;;;;17.33;9.05;;;9.40;99.90;;;;;;5118330;28;20030;-67
2021/05/30 06:40:47;;;;;;;17.40;8.73;;;9.50;99.90;;;;;;5118301;28;20020;-64
2021/05/30 06:43:14;;;;;;;20.92;8.13;;;9.60;99.90;;;;;;5118451;28;20034;-64
2021/05/30 06:45:42;;;;;;;18.92;7.88;;;9.70;99.90;;;;;;5118345;28;20016;-64
2021/05/30 06:48:09;;;;;;;16.83;9.23;;;9.80;99.90;;;;;;5118122;28;20360;-65
2021/05/30 06:50:38;;;;;;;17.33;8.65;;;9.90;99.90;;;;;;5118227;28;20027;-65
2021/05/30 06:53:06;;;;;;;18.48;8.65;;;10.00;99.90;;;;;;5117881;28;20031;-65
2021/05/30 06:55:33;;;;;;;15.68;7.60;;;10.00;99.90;;;;;;5117042;28;20323;-65
2021/05/30 06:58:02;;;;;;;13.52;7.47;;;10.10;99.90;;;;;;5117213;28;20050;-65
2021/05/30 07:00:29;;;;;;;13.18;6.05;;;10.30;99.90;;;;;;5116777;28;20101;-65
2021/05/30 07:02:57;;;;;;;13.32;6.05;;;10.40;99.90;;;;;;5117889;28;20015;-65
2021/05/30 07:05:25;;;;;;;11.13;6.18;;;10.50;99.90;;;;;;5117091;28;20419;-65
2021/05/30 07:07:54;;;;;;;16.15;7.80;;;10.60;99.90;;;;;;5117265;28;20032;-65
2021/05/30 07:10:22;;;;;;;12.52;6.05;;;10.70;99.90;;;;;;5117018;28;20016;-65
2021/05/30 07:12:49;;;;;;;10.25;5.30;;;10.80;99.90;;;;;;5117504;28;20432;-65
2021/05/30 07:15:16;;;;;;;9.48;5.13;;;10.90;99.90;;;;;;5083068;28;20446;-64
2021/05/30 07:17:44;;;;;;;13.32;6.32;;;11.00;99.90;;;;;;5118305;28;20090;-65
2021/05/30 07:20:11;;;;;;;11.70;5.65;;;11.10;99.90;;;;;;5099780;28;20020;-65
2021/05/30 07:22:39;;;;;;;9.73;4.15;;;11.20;99.90;;;;;;5118228;28;20034;-64
2021/05/30 07:25:07;;;;;;;11.65;4.65;;;11.40;99.90;;;;;;5117828;28;20026;-63
2021/05/30 07:27:35;;;;;;;9.52;3.97;;;11.50;99.90;;;;;;5118530;28;20028;-62
2021/05/30 07:30:05;;;;;;;11.05;5.20;;;11.50;99.90;;;;;;5117781;28;20423;-61
2021/05/30 07:32:32;;;;;;;10.10;5.15;;;11.70;99.90;;;;;;5117533;28;20028;-62
2021/05/30 07:35:00;;;;;;;6.65;4.07;;;11.80;99.90;;;;;;5116753;28;20095;-62
2021/05/30 07:37:28;;;;;;;8.18;4.50;;;11.90;99.90;;;;;;5116710;28;20020;-62
2021/05/30 07:39:57;;;;;;;8.48;3.78;;;12.00;99.90;;;;;;5116562;28;20037;-63
2021/05/30 07:42:25;;;;;;;8.43;4.80;;;12.20;99.90;;;;;;5116666;28;20031;-62
2021/05/30 07:44:52;;;;;;;10.98;4.82;;;12.20;99.90;;;;;;5120301;28;20031;-62
2021/05/30 07:47:23;;;;;;;13.05;4.88;;;12.40;99.90;;;;;;5121351;28;20408;-62
2021/05/30 07:49:52;;;;;;;8.75;4.93;;;12.50;99.90;;;;;;5120559;28;20131;-62
2021/05/30 07:52:20;;;;;;;10.00;4.97;;;12.60;99.90;;;;;;5120371;28;20028;-67
2021/05/30 07:54:48;;;;;;;9.00;5.25;;;12.70;99.90;;;;;;5121383;28;20027;-62
2021/05/30 07:57:16;;;;;;;23.77;7.45;;;12.80;99.90;;;;;;5121981;28;20020;-62
2021/05/30 07:59:44;;;;;;;8.60;5.00;;;12.90;99.90;;;;;;5121421;28;20031;-62
2021/05/30 08:02:11;;;;;;;9.50;4.68;;;12.90;99.90;;;;;;5099969;28;20040;-62
2021/05/30 08:04:39;;;;;;;10.02;4.85;;;13.00;99.90;;;;;;5100868;28;20023;-62
2021/05/30 08:07:07;;;;;;;8.50;5.20;;;13.10;99.90;;;;;;5101045;28;20032;-62
2021/05/30 08:09:36;;;;;;;8.45;4.80;;;13.20;99.90;;;;;;5101466;28;20080;-62
2021/05/30 08:12:05;;;;;;;8.57;4.07;;;13.20;99.90;;;;;;5099709;28;20024;-62
2021/05/30 08:14:33;;;;;;;10.95;4.63;;;13.30;99.90;;;;;;5099955;28;20024;-62
2021/05/30 08:17:01;;;;;;;7.63;4.70;;;13.40;99.90;;;;;;5100444;28;20055;-62
2021/05/30 08:19:29;;;;;;;6.80;4.35;;;13.50;99.90;;;;;;5099721;28;20103;-62
2021/05/30 08:21:57;;;;;;;9.10;4.72;;;13.60;99.90;;;;;;5099966;28;20028;-62
2021/05/30 08:24:25;;;;;;;8.45;4.18;;;13.70;99.90;;;;;;5099605;28;20148;-62
2021/05/30 08:26:55;;;;;;;8.43;4.63;;;13.80;99.90;;;;;;5100186;28;20016;-62
2021/05/30 08:29:24;;;;;;;6.47;3.60;;;13.80;99.90;;;;;;5099666;28;20095;-62
2021/05/30 08:31:53;;;;;;;9.52;4.68;;;13.90;99.90;;;;;;5099730;28;20316;-62
2021/05/30 08:34:21;;;;;;;8.60;4.43;;;14.00;99.90;;;;;;5099977;28;20400;-62
2021/05/30 08:36:49;;;;;;;9.93;5.28;;;14.10;99.90;;;;;;5099005;28;20024;-62
2021/05/30 08:39:17;;;;;;;8.43;4.00;;;14.10;99.90;;;;;;5100555;28;20066;-62
2021/05/30 08:41:44;;;;;;;7.15;3.80;;;14.20;99.90;;;;;;5099188;28;20052;-62
2021/05/30 08:44:12;;;;;;;5.97;3.53;;;14.20;99.90;;;;;;5099188;28;20328;-62
2021/05/30 08:46:42;;;;;;;6.75;3.75;;;14.30;99.90;;;;;;5100564;28;20027;-62
2021/05/30 08:49:10;;;;;;;7.72;3.65;;;14.40;99.90;;;;;;5100249;28;20032;-62
2021/05/30 08:51:40;;;;;;;10.48;4.35;;;14.50;99.90;;;;;;5099980;28;20031;-62
2021/05/30 08:54:19;;;;;;;9.60;4.15;;;14.60;99.90;;;;;;5099857;28;20016;-62
2021/05/30 08:56:49;;;;;;;6.90;4.28;;;14.80;99.90;;;;;;5098054;28;20430;-62
2021/05/30 08:59:30;;;;;;;8.38;4.13;;;14.90;99.90;;;;;;5098960;28;20035;-62
2021/05/30 09:02:00;;;;;;;6.90;3.42;;;15.00;99.90;;;;;;5117405;28;20036;-64
2021/05/30 09:04:33;;;;;;;5.82;3.30;;;15.00;99.90;;;;;;5119380;28;20039;-63
2021/05/30 09:07:01;;;;;;;7.88;3.72;;;15.10;99.90;;;;;;5101377;28;20048;-63
2021/05/30 09:09:44;;;;;;;8.30;3.75;;;15.20;99.90;;;;;;5119357;28;20058;-63
2021/05/30 09:12:26;;;;;;;9.48;4.47;;;15.20;99.90;;;;;;5119057;28;20534;-63
2021/05/30 09:14:55;;;;;;;6.70;3.90;;;15.30;99.90;;;;;;5119337;28;20028;-63
2021/05/30 09:17:26;;;;;;;7.57;3.63;;;15.30;99.90;;;;;;5119418;28;20039;-63
2021/05/30 09:19:56;;;;;;;9.50;3.55;;;15.40;99.90;;;;;;5120089;28;20019;-63
2021/05/30 09:22:38;;;;;;;6.82;4.00;;;15.40;99.90;;;;;;5119832;28;20046;-63
2021/05/30 09:25:14;;;;;;;8.43;4.13;;;15.50;99.90;;;;;;5119993;28;20015;-63
2021/05/30 09:27:50;;;;;;;8.02;3.80;;;15.60;99.90;;;;;;5101882;28;20048;-64
2021/05/30 09:30:22;;;;;;;7.88;4.10;;;15.60;99.90;;;;;;5120436;28;20019;-64
2021/05/30 09:33:04;;;;;;;7.55;4.07;;;15.70;99.90;;;;;;5120033;28;20034;-63
2021/05/30 09:36:00;;;;;;;6.30;3.55;;;15.80;99.90;;;;;;5120270;28;20026;-63
2021/05/30 09:38:36;;;;;;;6.32;3.70;;;15.90;99.90;;;;;;5119925;28;20124;-64
2021/05/30 09:41:16;;;;;;;6.53;3.80;;;15.80;99.90;;;;;;5118596;28;20034;-64
2021/05/30 09:43:54;;;;;;;7.72;3.88;;;16.00;99.90;;;;;;5118502;28;20092;-64
2021/05/30 09:46:33;;;;;;;5.95;3.00;;;16.00;99.90;;;;;;5118426;28;20024;-63
2021/05/30 09:49:01;;;;;;;10.18;3.03;;;16.10;99.90;;;;;;5100331;28;20020;-64
2021/05/30 09:51:32;;;;;;;7.13;4.10;;;16.10;99.90;;;;;;5100585;28;20098;-65
2021/05/30 09:54:03;;;;;;;9.40;3.33;;;16.20;99.90;;;;;;5118525;28;20020;-63
2021/05/30 09:56:44;;;;;;;6.10;3.40;;;16.30;99.90;;;;;;5100214;28;20080;-64
2021/05/30 09:59:17;;;;;;;5.35;2.75;;;16.30;99.90;;;;;;5100681;28;20023;-64
2021/05/30 10:01:59;;;;;;;4.18;2.50;;;16.50;99.90;;;;;;5118924;28;20067;-64
2021/05/30 10:04:31;;;;;;;8.80;2.78;;;16.50;98.70;;;;;;5119367;28;20030;-64
2021/05/30 10:07:00;;;;;;;7.15;2.85;;;16.70;98.30;;;;;;5118939;28;20442;-63
2021/05/30 10:09:29;;;;;;;5.65;2.55;;;16.80;98.10;;;;;;5119266;28;20100;-64
2021/05/30 10:11:57;;;;;;;4.65;2.38;;;16.90;96.60;;;;;;5118844;28;20019;-64
2021/05/30 10:14:26;;;;;;;4.85;2.40;;;17.00;95.80;;;;;;5100766;28;20023;-64
2021/05/30 10:17:00;;;;;;;2.25;1.50;;;17.10;94.80;;;;;;5119201;28;20342;-64
2021/05/30 10:19:30;;;;;;;5.32;1.95;;;17.10;92.10;;;;;;5118119;28;20027;-64
2021/05/30 10:22:00;;;;;;;4.15;2.00;;;17.20;90.80;;;;;;5117867;28;20416;-64
2021/05/30 10:24:30;;;;;;;2.78;1.50;;;17.30;90.10;;;;;;5117655;28;20107;-63
2021/05/30 10:27:30;;;;;;;6.07;2.30;;;17.40;87.50;;;;;;5117578;28;20030;-64
2021/05/30 10:30:10;;;;;;;3.00;1.65;;;17.50;89.40;;;;;;5062895;28;20371;-64
2021/05/30 10:32:44;;;;;;;3.30;1.90;;;17.50;87.60;;;;;;5118095;28;20080;-64
2021/05/30 10:35:28;;;;;;;3.17;2.00;;;17.60;86.10;;;;;;5117492;28;20024;-64
2021/05/30 10:37:57;;;;;;;5.57;2.22;;;17.70;86.20;;;;;;5117459;28;20024;-64
2021/05/30 10:40:25;;;;;;;5.80;1.85;;;17.70;83.50;;;;;;5118399;28;20415;-64
2021/05/30 10:43:31;;;;;;;3.63;1.80;;;17.80;85.10;;;;;;5118433;28;20036;-65
2021/05/30 10:46:03;;;;;;;5.78;2.13;;;17.90;81.40;;;;;;5067182;28;20088;-64
2021/05/30 10:48:31;;;;;;;4.60;2.00;;;17.90;84.40;;;;;;5118246;28;20081;-64
2021/05/30 10:53:51;;;;;;;4.35;1.90;;;18.00;83.50;;;;;;5118128;28;20019;-64
2021/05/30 10:56:25;;;;;;;4.95;1.90;;;18.10;83.60;;;;;;5118768;28;20041;-64
2021/05/30 10:59:08;;;;;;;2.85;2.05;;;18.30;85.60;;;;;;5117943;28;20059;-64
2021/05/30 11:01:40;;;;;;;4.00;2.30;;;18.40;83.70;;;;;;5116720;28;20104;-64
2021/05/30 11:04:29;;;;;;;2.97;1.80;;;18.50;82.90;;;;;;5117641;28;20043;-64
2021/05/30 11:07:29;;;;;;;3.75;1.40;;;18.70;80.60;;;;;;5116937;28;20023;-65
2021/05/30 11:10:02;;;;;;;3.35;1.80;;;18.80;76.50;;;;;;5117270;28;20031;-64
2021/05/30 11:12:49;;;;;;;2.75;1.50;;;19.00;75.20;;;;;;5116901;28;20031;-64
2021/05/30 11:15:18;;;;;;;4.75;2.30;;;19.20;74.20;;;;;;5098994;28;20372;-64
2021/05/30 11:17:52;;;;;;;2.95;1.63;;;19.40;72.50;;;;;;5116622;28;20031;-64
2021/05/30 11:20:39;;;;;;;4.13;1.77;;;19.50;72.40;;;;;;5117192;28;20100;-64
2021/05/30 11:23:12;;;;;;;2.80;1.90;;;19.60;74.10;;;;;;5117838;28;20056;-64
2021/05/30 11:25:43;;;;;;;3.25;1.90;;;19.70;74.40;;;;;;5117782;28;20423;-64
2021/05/30 11:28:13;;;;;;;3.40;1.92;;;19.80;74.80;;;;;;5117846;28;20106;-65
2021/05/30 11:30:56;;;;;;;3.17;2.17;;;19.80;72.20;;;;;;5117722;28;20057;-63
2021/05/30 11:33:27;;;;;;;4.28;2.38;;;19.80;72.30;;;;;;5099796;28;20023;-64
2021/05/30 11:35:56;;;;;;;4.43;2.08;;;19.70;72.80;;;;;;5118253;28;20020;-64
2021/05/30 11:38:57;;;;;;;5.90;2.60;;;19.70;73.10;;;;;;5117598;28;20475;-64
2021/05/30 11:41:25;;;;;;;4.57;2.50;;;19.70;73.70;;;;;;5098641;28;20032;-64
2021/05/30 11:44:00;;;;;;;3.30;2.03;;;19.70;74.30;;;;;;5117340;28;20030;-64
2021/05/30 11:46:30;;;;;;;5.82;1.98;;;19.70;74.60;;;;;;5116639;28;20053;-64
2021/05/30 11:49:13;;;;;;;4.22;2.20;;;19.70;75.90;;;;;;5116609;28;20031;-64
2021/05/30 11:52:07;;;;;;;6.60;2.97;;;19.80;76.10;;;;;;5116927;28;20020;-64
2021/05/30 11:54:50;;;;;;;3.80;2.17;;;19.90;75.40;;;;;;5116557;28;20028;-64
2021/05/30 11:57:20;;;;;;;4.47;2.67;;;20.00;74.30;;;;;;5117181;28;20439;-64
2021/05/30 11:59:57;;;;;;;4.65;2.45;;;20.00;73.90;;;;;;5116278;28;20031;-64
2021/05/30 12:02:30;;;;;;;6.25;2.50;;;20.00;71.50;;;;;;5077249;28;20036;-64
2021/05/30 12:05:05;;;;;;;4.18;2.38;;;20.00;69.70;;;;;;5075849;28;20021;-64
2021/05/30 12:07:33;;;;;;;4.57;2.13;;;20.00;71.00;;;;;;5075844;28;20032;-64
2021/05/30 12:10:06;;;;;;;2.95;1.80;;;20.00;71.00;;;;;;5077445;28;20028;-64
2021/05/30 12:12:44;;;;;;;7.15;2.20;;;20.10;67.30;;;;;;5076748;28;20032;-64
2021/05/30 12:15:15;;;;;;;3.00;1.58;;;20.10;67.50;;;;;;5076720;28;20075;-64
2021/05/30 12:18:01;;;;;;;2.30;1.50;;;20.10;66.40;;;;;;5076811;28;20052;-63
2021/05/30 12:20:36;;;;;;;2.33;1.70;;;20.20;67.80;;;;;;5076548;28;20024;-63
2021/05/30 12:23:16;;;;;;;2.72;1.73;;;20.30;66.70;;;;;;5075813;28;20108;-63
2021/05/30 12:25:58;;;;;;;2.47;1.65;;;20.40;65.70;;;;;;5076029;28;20028;-64
2021/05/30 12:28:34;;;;;;;2.30;1.58;;;20.40;66.60;;;;;;5076244;28;20025;-64
2021/05/30 12:31:10;;;;;;;;;;;20.40;66.40;;;;;;5078235;28;20021;-63
2021/05/30 12:34:04;;;;;;;7.65;2.00;;;20.50;65.40;;;;;;5079208;28;19909;-63
2021/05/30 12:36:56;;;;;;;5.35;1.90;;;20.60;65.70;;;;;;5079436;28;20021;-63
2021/05/30 12:39:28;;;;;;;5.95;1.98;;;20.60;65.70;;;;;;5079297;28;20029;-63
2021/05/30 12:42:06;;;;;;;4.35;1.85;;;20.60;63.70;;;;;;5079953;28;20016;-64
2021/05/30 12:44:47;;;;;;;3.17;1.50;;;20.60;65.00;;;;;;5079931;28;20104;-63
2021/05/30 12:47:21;;;;;;;3.13;1.48;;;20.60;63.90;;;;;;5079819;28;20028;-63
2021/05/30 12:50:00;;;;;;;4.15;1.58;;;20.60;64.40;;;;;;5079931;28;20095;-63
2021/05/30 12:52:43;;;;;;;2.00;1.48;;;20.60;64.30;;;;;;5078624;28;20022;-62
2021/05/30 12:55:12;;;;;;;3.65;2.20;;;20.60;63.00;;;;;;5079814;28;20025;-63
2021/05/30 12:57:47;;;;;;;5.05;1.70;;;20.60;62.20;;;;;;5079818;28;20325;-63
2021/05/30 13:00:36;;;;;;;2.83;1.52;;;20.70;62.40;;;;;;5086860;28;20036;-63
2021/05/30 13:03:12;;;;;;;2.78;1.67;;;20.70;62.80;;;;;;5119303;28;20101;-63
2021/05/30 13:05:42;;;;;;;3.85;1.70;;;20.70;62.60;;;;;;5119365;28;20020;-63
2021/05/30 13:08:31;;;;;;;11.50;1.80;;;20.80;61.70;;;;;;5119150;28;20024;-63
2021/05/30 13:11:07;;;;;;;2.45;1.55;;;20.80;61.00;;;;;;5119533;28;20020;-63